createdAt,value
2018-03-22T00:00:25.673Z,0
2018-03-22T00:01:25.729Z,0
2018-03-22T00:02:25.127Z,0
2018-03-22T00:03:25.698Z,0
2018-03-22T00:04:26.385Z,0
2018-03-22T00:05:26.011Z,0
2018-03-22T00:06:25.797Z,0
2018-03-22T00:07:25.763Z,0
2018-03-22T00:08:25.770Z,0
2018-03-22T00:09:25.787Z,0
2018-03-22T00:10:26.122Z,0
2018-03-22T00:11:25.848Z,0
2018-03-22T00:12:25.227Z,0
2018-03-22T00:13:25.532Z,0
2018-03-22T00:14:25.825Z,0
2018-03-22T00:15:25.558Z,0
2018-03-22T00:16:25.604Z,0
2018-03-22T00:17:25.571Z,0
2018-03-22T00:18:25.869Z,0
2018-03-22T00:19:25.635Z,0
2018-03-22T00:20:25.606Z,0
2018-03-22T00:21:25.948Z,0
2018-03-22T00:22:26.211Z,0
2018-03-22T00:23:25.061Z,0
2018-03-22T00:24:25.960Z,0
2018-03-22T00:25:25.955Z,0
2018-03-22T00:26:26.276Z,0
2018-03-22T00:27:26.245Z,0
2018-03-22T00:28:26.286Z,0
2018-03-22T00:29:25.985Z,0
2018-03-22T00:30:25.709Z,0
2018-03-22T00:31:25.998Z,0
2018-03-22T00:32:25.726Z,0
2018-03-22T00:33:25.735Z,0
2018-03-22T00:34:26.027Z,0
2018-03-22T00:35:26.321Z,0
2018-03-22T00:36:25.818Z,0
2018-03-22T00:37:26.059Z,0
2018-03-22T00:38:26.355Z,0
2018-03-22T00:39:25.830Z,0
2018-03-22T00:40:25.237Z,0
2018-03-22T00:41:26.151Z,0
2018-03-22T00:42:25.832Z,0
2018-03-22T00:43:25.268Z,0
2018-03-22T00:44:25.847Z,0
2018-03-22T00:45:25.304Z,0
2018-03-22T00:46:26.439Z,0
2018-03-22T00:47:26.164Z,0
2018-03-22T00:48:26.478Z,0
2018-03-22T00:49:26.192Z,0
2018-03-22T00:50:26.494Z,0
2018-03-22T00:51:25.915Z,0
2018-03-22T00:52:26.225Z,0
2018-03-22T00:53:26.217Z,0
2018-03-22T00:54:25.673Z,0
2018-03-22T00:55:25.974Z,0
2018-03-22T00:56:26.306Z,0
2018-03-22T00:57:26.563Z,0
2018-03-22T00:58:26.274Z,0
2018-03-22T00:59:26.282Z,0
2018-03-22T01:00:26.012Z,0
2018-03-22T01:01:26.640Z,0
2018-03-22T01:02:26.330Z,0
2018-03-22T01:03:26.333Z,0
2018-03-22T01:04:26.172Z,0
2018-03-22T01:05:26.346Z,0
2018-03-22T01:06:26.408Z,0
2018-03-22T01:07:26.085Z,0
2018-03-22T01:08:25.811Z,0
2018-03-22T01:09:26.685Z,0
2018-03-22T01:10:26.696Z,0
2018-03-22T01:11:26.410Z,0
2018-03-22T01:12:26.142Z,0
2018-03-22T01:13:26.146Z,0
2018-03-22T01:14:26.456Z,0
2018-03-22T01:15:26.448Z,0
2018-03-22T01:16:26.228Z,0
2018-03-22T01:17:25.910Z,0
2018-03-22T01:18:26.494Z,0
2018-03-22T01:19:25.944Z,0
2018-03-22T01:20:26.224Z,0
2018-03-22T01:21:26.856Z,0
2018-03-22T01:22:26.534Z,0
2018-03-22T01:23:26.825Z,0
2018-03-22T01:24:26.558Z,0
2018-03-22T01:25:26.554Z,0
2018-03-22T01:26:26.289Z,0
2018-03-22T01:27:26.300Z,0
2018-03-22T01:28:26.317Z,0
2018-03-22T01:29:33.484Z,0
2018-03-22T01:30:26.330Z,0
2018-03-22T01:31:26.904Z,0
2018-03-22T01:32:26.626Z,0
2018-03-22T01:33:27.029Z,0
2018-03-22T01:34:26.374Z,0
2018-03-22T01:35:26.955Z,0
2018-03-22T01:36:26.390Z,0
2018-03-22T01:37:26.962Z,0
2018-03-22T01:38:27.000Z,0
2018-03-22T01:39:26.706Z,0
2018-03-22T01:40:26.441Z,0
2018-03-22T01:41:27.009Z,0
2018-03-22T01:42:27.063Z,0
2018-03-22T01:43:26.762Z,0
2018-03-22T01:44:26.758Z,0
2018-03-22T01:45:26.769Z,0
2018-03-22T01:46:26.783Z,0
2018-03-22T01:47:26.856Z,0
2018-03-22T01:48:26.795Z,0
2018-03-22T01:49:26.823Z,0
2018-03-22T01:50:27.122Z,0
2018-03-22T01:51:27.108Z,0
2018-03-22T01:52:27.132Z,0
2018-03-22T01:53:26.844Z,0
2018-03-22T01:54:27.179Z,0
2018-03-22T01:55:26.584Z,0
2018-03-22T01:56:26.600Z,0
2018-03-22T01:57:26.888Z,0
2018-03-22T01:58:26.916Z,0
2018-03-22T01:59:26.351Z,0
2018-03-22T02:00:26.359Z,0
2018-03-22T02:01:26.651Z,0
2018-03-22T02:02:26.667Z,0
2018-03-22T02:03:26.673Z,0
2018-03-22T02:04:26.674Z,0
2018-03-22T02:05:26.700Z,0
2018-03-22T02:06:27.004Z,0
2018-03-22T02:07:27.039Z,0
2018-03-22T02:08:26.714Z,0
2018-03-22T02:09:27.012Z,0
2018-03-22T02:10:27.024Z,0
2018-03-22T02:11:27.037Z,0
2018-03-22T02:12:26.472Z,0
2018-03-22T02:13:26.484Z,0
2018-03-22T02:14:26.799Z,0
2018-03-22T02:15:27.079Z,0
2018-03-22T02:16:27.360Z,0
2018-03-22T02:17:26.813Z,0
2018-03-22T02:18:26.838Z,0
2018-03-22T02:19:26.845Z,0
2018-03-22T02:20:27.403Z,0
2018-03-22T02:21:27.135Z,0
2018-03-22T02:22:27.444Z,0
2018-03-22T02:23:26.880Z,0
2018-03-22T02:24:26.880Z,0
2018-03-22T02:25:27.193Z,0
2018-03-22T02:26:26.902Z,0
2018-03-22T02:27:26.624Z,0
2018-03-22T02:28:27.205Z,0
2018-03-22T02:29:27.532Z,0
2018-03-22T02:30:27.520Z,0
2018-03-22T02:31:27.241Z,0
2018-03-22T02:32:27.312Z,0
2018-03-22T02:33:27.543Z,0
2018-03-22T02:34:27.276Z,0
2018-03-22T02:35:27.575Z,0
2018-03-22T02:36:27.014Z,0
2018-03-22T02:37:27.595Z,0
2018-03-22T02:38:27.030Z,0
2018-03-22T02:39:27.322Z,0
2018-03-22T02:40:27.616Z,0
2018-03-22T02:41:27.352Z,0
2018-03-22T02:42:27.374Z,0
2018-03-22T02:43:27.374Z,0
2018-03-22T02:44:27.144Z,0
2018-03-22T02:45:27.686Z,0
2018-03-22T02:46:27.110Z,0
2018-03-22T02:47:27.438Z,0
2018-03-22T02:48:27.706Z,0
2018-03-22T02:49:27.717Z,0
2018-03-22T02:50:27.740Z,0
2018-03-22T02:51:27.738Z,0
2018-03-22T02:52:27.752Z,0
2018-03-22T02:53:27.470Z,0
2018-03-22T02:54:27.785Z,0
2018-03-22T02:55:27.785Z,0
2018-03-22T02:56:27.212Z,0
2018-03-22T02:57:27.224Z,0
2018-03-22T02:58:27.522Z,0
2018-03-22T02:59:27.875Z,0
2018-03-22T03:00:27.597Z,0
2018-03-22T03:01:27.541Z,0
2018-03-22T03:02:27.863Z,0
2018-03-22T03:03:27.561Z,0
2018-03-22T03:04:27.018Z,0
2018-03-22T03:05:27.045Z,0
2018-03-22T03:06:27.615Z,0
2018-03-22T03:07:27.898Z,0
2018-03-22T03:08:27.330Z,0
2018-03-22T03:09:26.809Z,0
2018-03-22T03:10:27.635Z,0
2018-03-22T03:11:27.373Z,0
2018-03-22T03:12:27.369Z,0
2018-03-22T03:13:27.389Z,0
2018-03-22T03:14:27.390Z,0
2018-03-22T03:15:27.414Z,0
2018-03-22T03:16:27.706Z,0
2018-03-22T03:17:27.140Z,0
2018-03-22T03:18:27.435Z,0
2018-03-22T03:19:28.011Z,0
2018-03-22T03:20:27.747Z,0
2018-03-22T03:21:27.749Z,0
2018-03-22T03:22:27.485Z,0
2018-03-22T03:23:28.054Z,0
2018-03-22T03:24:27.491Z,0
2018-03-22T03:25:28.083Z,0
2018-03-22T03:26:27.516Z,0
2018-03-22T03:27:27.524Z,0
2018-03-22T03:28:27.817Z,0
2018-03-22T03:29:28.166Z,0
2018-03-22T03:30:27.703Z,0
2018-03-22T03:31:27.865Z,0
2018-03-22T03:32:27.300Z,0
2018-03-22T03:33:27.940Z,0
2018-03-22T03:34:27.891Z,0
2018-03-22T03:35:27.625Z,0
2018-03-22T03:36:27.897Z,0
2018-03-22T03:37:27.924Z,0
2018-03-22T03:38:27.638Z,0
2018-03-22T03:39:28.223Z,0
2018-03-22T03:40:27.954Z,0
2018-03-22T03:41:28.396Z,0
2018-03-22T03:42:27.967Z,0
2018-03-22T03:43:27.975Z,0
2018-03-22T03:44:28.256Z,0
2018-03-22T03:45:28.012Z,0
2018-03-22T03:46:28.295Z,0
2018-03-22T03:47:28.310Z,0
2018-03-22T03:48:28.442Z,0
2018-03-22T03:49:28.031Z,0
2018-03-22T03:50:28.039Z,0
2018-03-22T03:51:28.346Z,0
2018-03-22T03:52:28.062Z,0
2018-03-22T03:53:28.072Z,0
2018-03-22T03:54:28.090Z,0
2018-03-22T03:55:28.101Z,0
2018-03-22T03:56:27.825Z,0
2018-03-22T03:57:28.124Z,0
2018-03-22T03:58:28.117Z,0
2018-03-22T03:59:27.851Z,0
2018-03-22T04:00:28.186Z,0
2018-03-22T04:01:28.161Z,0
2018-03-22T04:02:27.875Z,0
2018-03-22T04:03:28.217Z,0
2018-03-22T04:04:28.190Z,0
2018-03-22T04:05:27.905Z,0
2018-03-22T04:06:27.933Z,0
2018-03-22T04:07:27.363Z,0
2018-03-22T04:08:27.939Z,0
2018-03-22T04:09:27.949Z,0
2018-03-22T04:10:28.243Z,0
2018-03-22T04:11:28.260Z,0
2018-03-22T04:12:27.980Z,0
2018-03-22T04:13:28.284Z,0
2018-03-22T04:14:28.289Z,0
2018-03-22T04:15:27.733Z,0
2018-03-22T04:16:28.324Z,0
2018-03-22T04:17:28.316Z,0
2018-03-22T04:18:28.041Z,0
2018-03-22T04:19:28.054Z,0
2018-03-22T04:20:28.348Z,0
2018-03-22T04:21:28.645Z,0
2018-03-22T04:22:28.362Z,0
2018-03-22T04:23:28.139Z,0
2018-03-22T04:24:28.096Z,0
2018-03-22T04:25:28.394Z,0
2018-03-22T04:26:28.408Z,0
2018-03-22T04:27:28.151Z,0
2018-03-22T04:28:28.142Z,0
2018-03-22T04:29:28.437Z,0
2018-03-22T04:30:28.743Z,0
2018-03-22T04:31:28.454Z,0
2018-03-22T04:32:28.467Z,0
2018-03-22T04:33:28.192Z,0
2018-03-22T04:34:28.787Z,0
2018-03-22T04:35:28.501Z,0
2018-03-22T04:36:28.236Z,0
2018-03-22T04:37:28.246Z,0
2018-03-22T04:38:28.240Z,0
2018-03-22T04:39:28.268Z,0
2018-03-22T04:40:28.041Z,0
2018-03-22T04:41:28.599Z,0
2018-03-22T04:42:28.295Z,0
2018-03-22T04:43:28.875Z,0
2018-03-22T04:44:28.306Z,0
2018-03-22T04:45:28.843Z,0
2018-03-22T04:46:28.059Z,0
2018-03-22T04:47:28.643Z,0
2018-03-22T04:48:28.103Z,0
2018-03-22T04:49:28.287Z,0
2018-03-22T04:50:28.950Z,0
2018-03-22T04:51:28.403Z,0
2018-03-22T04:52:28.672Z,0
2018-03-22T04:53:28.685Z,0
2018-03-22T04:54:28.713Z,0
2018-03-22T04:55:28.558Z,0
2018-03-22T04:56:29.002Z,0
2018-03-22T04:57:28.725Z,0
2018-03-22T04:58:29.050Z,0
2018-03-22T04:59:28.762Z,0
2018-03-22T05:00:28.196Z,0
2018-03-22T05:01:28.486Z,0
2018-03-22T05:02:28.485Z,0
2018-03-22T05:03:28.800Z,0
2018-03-22T05:04:28.269Z,0
2018-03-22T05:05:29.085Z,0
2018-03-22T05:06:28.811Z,0
2018-03-22T05:07:28.539Z,0
2018-03-22T05:08:28.264Z,0
2018-03-22T05:09:28.843Z,0
2018-03-22T05:10:28.291Z,0
2018-03-22T05:11:29.729Z,0
2018-03-22T05:12:28.872Z,0
2018-03-22T05:13:28.604Z,0
2018-03-22T05:14:28.612Z,0
2018-03-22T05:15:28.334Z,0
2018-03-22T05:16:29.190Z,0
2018-03-22T05:17:29.233Z,0
2018-03-22T05:18:29.013Z,0
2018-03-22T05:19:29.093Z,0
2018-03-22T05:20:29.604Z,0
2018-03-22T05:21:28.960Z,0
2018-03-22T05:22:29.260Z,0
2018-03-22T05:23:29.281Z,0
2018-03-22T05:24:28.140Z,0
2018-03-22T05:25:28.999Z,0
2018-03-22T05:26:29.010Z,0
2018-03-22T05:27:28.761Z,0
2018-03-22T05:28:28.774Z,0
2018-03-22T05:29:29.055Z,0
2018-03-22T05:30:28.485Z,0
2018-03-22T05:31:28.784Z,0
2018-03-22T05:32:29.078Z,0
2018-03-22T05:33:28.801Z,0
2018-03-22T05:34:29.106Z,0
2018-03-22T05:35:29.559Z,0
2018-03-22T05:36:29.406Z,5
2018-03-22T05:37:28.847Z,5
2018-03-22T05:38:29.149Z,5
2018-03-22T05:39:28.869Z,5
2018-03-22T05:40:29.439Z,0
2018-03-22T05:41:29.228Z,0
2018-03-22T05:42:29.175Z,0
2018-03-22T05:43:29.182Z,0
2018-03-22T05:44:28.626Z,0
2018-03-22T05:45:28.928Z,0
2018-03-22T05:46:28.932Z,0
2018-03-22T05:47:28.733Z,0
2018-03-22T05:48:29.231Z,0
2018-03-22T05:49:28.742Z,0
2018-03-22T05:50:28.972Z,0
2018-03-22T05:51:28.710Z,0
2018-03-22T05:52:29.576Z,0
2018-03-22T05:53:28.736Z,0
2018-03-22T05:54:29.064Z,0
2018-03-22T05:55:28.737Z,0
2018-03-22T05:56:28.461Z,0
2018-03-22T05:57:29.319Z,0
2018-03-22T05:58:28.778Z,0
2018-03-22T05:59:29.633Z,0
2018-03-22T06:00:29.348Z,0
2018-03-22T06:01:29.357Z,0
2018-03-22T06:02:28.817Z,0
2018-03-22T06:03:29.109Z,0
2018-03-22T06:04:29.105Z,0
2018-03-22T06:05:29.128Z,0
2018-03-22T06:06:29.503Z,0
2018-03-22T06:07:29.147Z,0
2018-03-22T06:08:29.434Z,0
2018-03-22T06:09:29.789Z,0
2018-03-22T06:10:29.454Z,0
2018-03-22T06:11:28.895Z,0
2018-03-22T06:12:29.324Z,0
2018-03-22T06:13:29.387Z,0
2018-03-22T06:14:29.239Z,5
2018-03-22T06:15:29.517Z,5
2018-03-22T06:16:29.544Z,5
2018-03-22T06:17:29.384Z,5
2018-03-22T06:18:29.545Z,5
2018-03-22T06:19:29.267Z,5
2018-03-22T06:20:29.558Z,5
2018-03-22T06:21:29.848Z,5
2018-03-22T06:22:29.857Z,5
2018-03-22T06:23:29.584Z,5
2018-03-22T06:24:29.596Z,5
2018-03-22T06:25:29.356Z,5
2018-03-22T06:26:29.339Z,5
2018-03-22T06:27:29.341Z,5
2018-03-22T06:28:29.635Z,5
2018-03-22T06:29:29.419Z,5
2018-03-22T06:30:29.088Z,5
2018-03-22T06:31:29.957Z,5
2018-03-22T06:32:29.957Z,5
2018-03-22T06:33:29.399Z,5
2018-03-22T06:34:29.416Z,5
2018-03-22T06:35:29.997Z,5
2018-03-22T06:36:29.774Z,5
2018-03-22T06:37:29.440Z,5
2018-03-22T06:38:29.738Z,5
2018-03-22T06:39:30.035Z,10
2018-03-22T06:40:30.058Z,10
2018-03-22T06:41:30.046Z,10
2018-03-22T06:42:29.780Z,10
2018-03-22T06:43:29.229Z,10
2018-03-22T06:44:29.849Z,10
2018-03-22T06:45:29.541Z,10
2018-03-22T06:46:29.538Z,10
2018-03-22T06:47:30.115Z,10
2018-03-22T06:48:29.844Z,15
2018-03-22T06:49:29.305Z,15
2018-03-22T06:50:29.571Z,15
2018-03-22T06:51:29.585Z,15
2018-03-22T06:52:29.880Z,20
2018-03-22T06:53:29.321Z,20
2018-03-22T06:54:29.057Z,15
2018-03-22T06:55:30.193Z,15
2018-03-22T06:56:29.638Z,15
2018-03-22T06:57:30.049Z,15
2018-03-22T06:58:29.942Z,15
2018-03-22T06:59:29.946Z,15
2018-03-22T07:00:29.959Z,15
2018-03-22T07:01:29.716Z,15
2018-03-22T07:02:29.998Z,15
2018-03-22T07:03:29.989Z,15
2018-03-22T07:04:29.721Z,15
2018-03-22T07:05:29.747Z,10
2018-03-22T07:06:29.757Z,15
2018-03-22T07:07:30.330Z,15
2018-03-22T07:08:29.765Z,15
2018-03-22T07:09:30.335Z,15
2018-03-22T07:10:29.780Z,15
2018-03-22T07:11:30.083Z,15
2018-03-22T07:12:30.358Z,15
2018-03-22T07:13:29.810Z,20
2018-03-22T07:14:29.831Z,20
2018-03-22T07:15:29.593Z,20
2018-03-22T07:16:29.846Z,20
2018-03-22T07:17:29.573Z,20
2018-03-22T07:18:29.576Z,20
2018-03-22T07:19:30.225Z,20
2018-03-22T07:20:29.878Z,20
2018-03-22T07:21:30.191Z,20
2018-03-22T07:22:30.185Z,20
2018-03-22T07:23:30.494Z,20
2018-03-22T07:24:30.268Z,20
2018-03-22T07:25:30.600Z,15
2018-03-22T07:26:30.238Z,20
2018-03-22T07:27:30.239Z,20
2018-03-22T07:28:30.243Z,20
2018-03-22T07:29:29.695Z,20
2018-03-22T07:30:30.271Z,20
2018-03-22T07:31:30.004Z,20
2018-03-22T07:32:30.564Z,20
2018-03-22T07:33:30.607Z,20
2018-03-22T07:34:30.666Z,20
2018-03-22T07:35:30.379Z,20
2018-03-22T07:36:30.343Z,20
2018-03-22T07:37:29.774Z,15
2018-03-22T07:38:30.348Z,15
2018-03-22T07:39:30.677Z,15
2018-03-22T07:40:29.811Z,15
2018-03-22T07:41:30.694Z,15
2018-03-22T07:42:30.401Z,15
2018-03-22T07:43:30.405Z,10
2018-03-22T07:44:30.441Z,10
2018-03-22T07:45:30.425Z,10
2018-03-22T07:46:30.458Z,10
2018-03-22T07:47:30.824Z,10
2018-03-22T07:48:30.469Z,10
2018-03-22T07:49:29.913Z,10
2018-03-22T07:50:29.628Z,10
2018-03-22T07:51:30.492Z,10
2018-03-22T07:52:29.941Z,10
2018-03-22T07:53:30.511Z,15
2018-03-22T07:54:30.531Z,20
2018-03-22T07:55:30.592Z,20
2018-03-22T07:56:30.260Z,25
2018-03-22T07:57:30.272Z,30
2018-03-22T07:58:30.283Z,30
2018-03-22T07:59:30.580Z,30
2018-03-22T08:00:30.592Z,25
2018-03-22T08:01:30.311Z,20
2018-03-22T08:02:30.889Z,15
2018-03-22T08:03:30.619Z,15
2018-03-22T08:04:30.348Z,15
2018-03-22T08:05:30.646Z,15
2018-03-22T08:06:30.657Z,15
2018-03-22T08:07:30.694Z,20
2018-03-22T08:08:30.955Z,20
2018-03-22T08:09:30.690Z,25
2018-03-22T08:10:31.031Z,30
2018-03-22T08:11:30.420Z,30
2018-03-22T08:12:30.905Z,30
2018-03-22T08:13:30.456Z,30
2018-03-22T08:14:30.748Z,30
2018-03-22T08:15:31.028Z,30
2018-03-22T08:16:30.476Z,30
2018-03-22T08:17:30.209Z,30
2018-03-22T08:18:30.503Z,30
2018-03-22T08:19:30.793Z,30
2018-03-22T08:20:31.094Z,30
2018-03-22T08:21:30.814Z,30
2018-03-22T08:22:30.824Z,30
2018-03-22T08:23:31.124Z,25
2018-03-22T08:24:30.855Z,25
2018-03-22T08:25:31.170Z,25
2018-03-22T08:26:30.589Z,30
2018-03-22T08:27:30.597Z,30
2018-03-22T08:28:30.041Z,30
2018-03-22T08:29:30.938Z,30
2018-03-22T08:30:30.633Z,30
2018-03-22T08:31:30.963Z,30
2018-03-22T08:32:30.971Z,30
2018-03-22T08:33:31.235Z,30
2018-03-22T08:34:30.970Z,30
2018-03-22T08:35:31.269Z,30
2018-03-22T08:36:30.987Z,30
2018-03-22T08:37:30.718Z,30
2018-03-22T08:38:30.722Z,30
2018-03-22T08:39:30.730Z,25
2018-03-22T08:40:31.028Z,25
2018-03-22T08:41:30.918Z,20
2018-03-22T08:42:30.765Z,20
2018-03-22T08:43:30.492Z,20
2018-03-22T08:44:31.067Z,20
2018-03-22T08:45:31.088Z,20
2018-03-22T08:46:31.378Z,20
2018-03-22T08:47:31.100Z,20
2018-03-22T08:48:31.115Z,20
2018-03-22T08:49:30.855Z,20
2018-03-22T08:50:31.472Z,20
2018-03-22T08:51:31.442Z,20
2018-03-22T08:52:31.444Z,20
2018-03-22T08:53:30.605Z,20
2018-03-22T08:54:30.906Z,20
2018-03-22T08:55:31.242Z,25
2018-03-22T08:56:31.222Z,25
2018-03-22T08:57:31.136Z,25
2018-03-22T08:58:30.947Z,25
2018-03-22T08:59:30.674Z,25
2018-03-22T09:00:31.255Z,30
2018-03-22T09:01:31.572Z,30
2018-03-22T09:02:31.558Z,35
2018-03-22T09:03:31.009Z,35
2018-03-22T09:04:31.017Z,30
2018-03-22T09:05:31.025Z,30
2018-03-22T09:06:31.035Z,30
2018-03-22T09:07:31.056Z,30
2018-03-22T09:08:31.059Z,30
2018-03-22T09:09:31.368Z,30
2018-03-22T09:10:31.372Z,30
2018-03-22T09:11:31.663Z,30
2018-03-22T09:12:31.105Z,35
2018-03-22T09:13:31.686Z,35
2018-03-22T09:14:31.498Z,30
2018-03-22T09:15:31.419Z,30
2018-03-22T09:16:30.875Z,30
2018-03-22T09:17:30.885Z,30
2018-03-22T09:18:31.738Z,30
2018-03-22T09:19:31.468Z,25
2018-03-22T09:20:31.201Z,25
2018-03-22T09:21:31.782Z,25
2018-03-22T09:22:31.949Z,25
2018-03-22T09:23:31.232Z,25
2018-03-22T09:24:31.249Z,25
2018-03-22T09:25:31.536Z,25
2018-03-22T09:26:31.263Z,30
2018-03-22T09:27:31.849Z,30
2018-03-22T09:28:31.576Z,30
2018-03-22T09:29:31.596Z,30
2018-03-22T09:30:31.595Z,25
2018-03-22T09:31:31.899Z,25
2018-03-22T09:32:31.347Z,25
2018-03-22T09:33:31.075Z,25
2018-03-22T09:34:31.653Z,25
2018-03-22T09:35:31.089Z,20
2018-03-22T09:36:31.956Z,20
2018-03-22T09:37:31.976Z,20
2018-03-22T09:38:31.731Z,20
2018-03-22T09:39:31.702Z,20
2018-03-22T09:40:31.995Z,20
2018-03-22T09:41:31.444Z,20
2018-03-22T09:42:31.466Z,20
2018-03-22T09:43:32.030Z,20
2018-03-22T09:44:32.057Z,20
2018-03-22T09:45:31.257Z,20
2018-03-22T09:46:31.212Z,25
2018-03-22T09:47:32.097Z,25
2018-03-22T09:48:31.811Z,25
2018-03-22T09:49:32.127Z,25
2018-03-22T09:50:31.545Z,25
2018-03-22T09:51:31.559Z,30
2018-03-22T09:52:31.286Z,30
2018-03-22T09:53:31.861Z,25
2018-03-22T09:54:31.590Z,25
2018-03-22T09:55:32.180Z,25
2018-03-22T09:56:31.717Z,25
2018-03-22T09:57:32.208Z,25
2018-03-22T09:58:31.922Z,25
2018-03-22T09:59:31.664Z,25
2018-03-22T10:00:31.954Z,25
2018-03-22T10:01:31.677Z,25
2018-03-22T10:02:31.680Z,20
2018-03-22T10:03:31.412Z,20
2018-03-22T10:04:31.426Z,20
2018-03-22T10:05:32.056Z,20
2018-03-22T10:06:31.739Z,25
2018-03-22T10:07:31.742Z,25
2018-03-22T10:08:32.488Z,25
2018-03-22T10:09:31.762Z,25
2018-03-22T10:10:31.775Z,25
2018-03-22T10:11:31.815Z,25
2018-03-22T10:12:31.525Z,20
2018-03-22T10:13:31.820Z,20
2018-03-22T10:14:32.107Z,20
2018-03-22T10:15:32.466Z,15
2018-03-22T10:16:31.932Z,20
2018-03-22T10:17:31.863Z,20
2018-03-22T10:18:32.443Z,20
2018-03-22T10:19:31.600Z,25
2018-03-22T10:20:31.604Z,25
2018-03-22T10:21:31.912Z,25
2018-03-22T10:22:31.633Z,25
2018-03-22T10:23:31.361Z,25
2018-03-22T10:24:31.938Z,30
2018-03-22T10:25:32.574Z,30
2018-03-22T10:26:31.675Z,30
2018-03-22T10:27:31.976Z,30
2018-03-22T10:28:32.007Z,30
2018-03-22T10:29:32.565Z,30
2018-03-22T10:30:32.004Z,35
2018-03-22T10:31:32.020Z,35
2018-03-22T10:32:31.748Z,30
2018-03-22T10:33:32.063Z,30
2018-03-22T10:34:32.057Z,25
2018-03-22T10:35:32.116Z,25
2018-03-22T10:36:32.638Z,25
2018-03-22T10:37:32.088Z,25
2018-03-22T10:38:32.098Z,30
2018-03-22T10:39:32.124Z,30
2018-03-22T10:40:32.462Z,40
2018-03-22T10:41:32.702Z,35
2018-03-22T10:42:32.458Z,30
2018-03-22T10:43:32.176Z,30
2018-03-22T10:44:31.892Z,35
2018-03-22T10:45:31.957Z,35
2018-03-22T10:46:31.912Z,40
2018-03-22T10:47:32.490Z,40
2018-03-22T10:48:32.562Z,40
2018-03-22T10:49:32.534Z,40
2018-03-22T10:50:32.239Z,40
2018-03-22T10:51:32.535Z,35
2018-03-22T10:52:32.557Z,35
2018-03-22T10:53:32.552Z,35
2018-03-22T10:54:32.571Z,35
2018-03-22T10:55:32.409Z,35
2018-03-22T10:56:32.312Z,35
2018-03-22T10:57:32.606Z,30
2018-03-22T10:58:32.900Z,30
2018-03-22T10:59:32.348Z,30
2018-03-22T11:00:32.924Z,25
2018-03-22T11:01:32.940Z,30
2018-03-22T11:02:32.396Z,25
2018-03-22T11:03:32.962Z,30
2018-03-22T11:04:32.683Z,30
2018-03-22T11:05:32.983Z,30
2018-03-22T11:06:32.721Z,30
2018-03-22T11:07:32.754Z,25
2018-03-22T11:08:32.786Z,25
2018-03-22T11:09:32.667Z,30
2018-03-22T11:10:33.047Z,25
2018-03-22T11:11:32.537Z,25
2018-03-22T11:12:32.498Z,25
2018-03-22T11:13:32.791Z,25
2018-03-22T11:14:32.554Z,25
2018-03-22T11:15:32.532Z,20
2018-03-22T11:16:32.829Z,25
2018-03-22T11:17:32.856Z,25
2018-03-22T11:18:32.861Z,25
2018-03-22T11:19:32.888Z,30
2018-03-22T11:20:32.318Z,30
2018-03-22T11:21:32.891Z,25
2018-03-22T11:22:32.910Z,30
2018-03-22T11:23:32.935Z,30
2018-03-22T11:24:32.642Z,30
2018-03-22T11:25:32.651Z,35
2018-03-22T11:26:32.959Z,35
2018-03-22T11:27:33.147Z,30
2018-03-22T11:28:32.691Z,35
2018-03-22T11:29:32.985Z,35
2018-03-22T11:30:32.708Z,35
2018-03-22T11:31:32.723Z,35
2018-03-22T11:32:32.740Z,35
2018-03-22T11:33:32.183Z,35
2018-03-22T11:34:33.398Z,35
2018-03-22T11:35:32.539Z,40
2018-03-22T11:36:33.346Z,30
2018-03-22T11:37:33.436Z,30
2018-03-22T11:38:33.125Z,30
2018-03-22T11:39:32.250Z,30
2018-03-22T11:40:33.118Z,30
2018-03-22T11:41:33.208Z,30
2018-03-22T11:42:32.576Z,30
2018-03-22T11:43:33.145Z,30
2018-03-22T11:44:32.315Z,30
2018-03-22T11:45:32.901Z,25
2018-03-22T11:46:33.055Z,30
2018-03-22T11:47:33.488Z,20
2018-03-22T11:48:32.928Z,20
2018-03-22T11:49:33.235Z,25
2018-03-22T11:50:32.955Z,20
2018-03-22T11:51:33.242Z,25
2018-03-22T11:52:33.256Z,25
2018-03-22T11:53:33.565Z,25
2018-03-22T11:54:32.720Z,25
2018-03-22T11:55:33.006Z,25
2018-03-22T11:56:33.448Z,25
2018-03-22T11:57:33.348Z,20
2018-03-22T11:58:33.631Z,25
2018-03-22T11:59:33.060Z,20
2018-03-22T12:00:33.636Z,20
2018-03-22T12:01:33.362Z,20
2018-03-22T12:02:33.097Z,20
2018-03-22T12:03:33.383Z,20
2018-03-22T12:04:33.396Z,20
2018-03-22T12:05:33.412Z,20
2018-03-22T12:06:33.704Z,20
2018-03-22T12:07:33.457Z,20
2018-03-22T12:08:33.170Z,20
2018-03-22T12:09:33.459Z,20
2018-03-22T12:10:33.193Z,20
2018-03-22T12:11:33.208Z,20
2018-03-22T12:12:34.027Z,20
2018-03-22T12:13:33.228Z,20
2018-03-22T12:14:33.800Z,20
2018-03-22T12:15:33.529Z,20
2018-03-22T12:16:33.825Z,20
2018-03-22T12:17:33.900Z,15
2018-03-22T12:18:33.287Z,15
2018-03-22T12:19:33.581Z,20
2018-03-22T12:20:33.318Z,20
2018-03-22T12:21:33.331Z,15
2018-03-22T12:22:33.382Z,15
2018-03-22T12:23:33.641Z,20
2018-03-22T12:24:33.140Z,15
2018-03-22T12:25:33.650Z,10
2018-03-22T12:26:33.945Z,15
2018-03-22T12:27:33.390Z,15
2018-03-22T12:28:33.403Z,15
2018-03-22T12:29:33.420Z,15
2018-03-22T12:30:33.439Z,15
2018-03-22T12:31:34.013Z,15
2018-03-22T12:32:33.511Z,15
2018-03-22T12:33:33.750Z,15
2018-03-22T12:34:33.478Z,15
2018-03-22T12:35:34.060Z,15
2018-03-22T12:36:34.075Z,15
2018-03-22T12:37:33.799Z,15
2018-03-22T12:38:33.523Z,15
2018-03-22T12:39:33.829Z,15
2018-03-22T12:40:33.831Z,15
2018-03-22T12:41:33.852Z,15
2018-03-22T12:42:33.598Z,15
2018-03-22T12:43:33.801Z,15
2018-03-22T12:44:33.598Z,15
2018-03-22T12:45:33.892Z,15
2018-03-22T12:46:34.177Z,10
2018-03-22T12:47:34.195Z,15
2018-03-22T12:48:33.928Z,10
2018-03-22T12:49:33.943Z,10
2018-03-22T12:50:33.944Z,10
2018-03-22T12:51:34.249Z,10
2018-03-22T12:52:33.451Z,10
2018-03-22T12:53:33.697Z,10
2018-03-22T12:54:33.996Z,10
2018-03-22T12:55:33.727Z,10
2018-03-22T12:56:34.019Z,10
2018-03-22T12:57:34.315Z,10
2018-03-22T12:58:34.041Z,10
2018-03-22T12:59:34.052Z,10
2018-03-22T13:00:33.796Z,10
2018-03-22T13:01:33.791Z,10
2018-03-22T13:02:34.378Z,10
2018-03-22T13:03:34.127Z,10
2018-03-22T13:04:34.417Z,10
2018-03-22T13:05:34.153Z,10
2018-03-22T13:06:34.420Z,10
2018-03-22T13:07:33.874Z,10
2018-03-22T13:08:33.590Z,10
2018-03-22T13:09:33.898Z,10
2018-03-22T13:10:34.191Z,10
2018-03-22T13:11:33.628Z,10
2018-03-22T13:12:34.209Z,15
2018-03-22T13:13:34.231Z,15
2018-03-22T13:14:33.950Z,15
2018-03-22T13:15:34.527Z,15
2018-03-22T13:16:33.968Z,10
2018-03-22T13:17:34.032Z,10
2018-03-22T13:18:33.998Z,15
2018-03-22T13:19:34.569Z,10
2018-03-22T13:20:34.300Z,10
2018-03-22T13:21:34.319Z,10
2018-03-22T13:22:34.373Z,10
2018-03-22T13:23:34.623Z,10
2018-03-22T13:24:34.109Z,10
2018-03-22T13:25:34.359Z,10
2018-03-22T13:26:34.699Z,10
2018-03-22T13:27:34.152Z,10
2018-03-22T13:28:34.402Z,10
2018-03-22T13:29:34.122Z,10
2018-03-22T13:30:34.425Z,10
2018-03-22T13:31:34.146Z,10
2018-03-22T13:32:34.486Z,10
2018-03-22T13:33:34.470Z,10
2018-03-22T13:34:34.180Z,10
2018-03-22T13:35:34.477Z,10
2018-03-22T13:36:34.790Z,10
2018-03-22T13:37:34.781Z,10
2018-03-22T13:38:34.529Z,10
2018-03-22T13:39:34.238Z,10
2018-03-22T13:40:34.825Z,10
2018-03-22T13:41:34.273Z,10
2018-03-22T13:42:34.269Z,10
2018-03-22T13:43:34.657Z,10
2018-03-22T13:44:34.360Z,10
2018-03-22T13:45:34.873Z,10
2018-03-22T13:46:34.630Z,10
2018-03-22T13:47:34.658Z,5
2018-03-22T13:48:34.336Z,5
2018-03-22T13:49:34.642Z,5
2018-03-22T13:50:34.360Z,5
2018-03-22T13:51:34.097Z,5
2018-03-22T13:52:34.958Z,5
2018-03-22T13:53:34.395Z,5
2018-03-22T13:54:34.709Z,5
2018-03-22T13:55:34.984Z,10
2018-03-22T13:56:34.433Z,10
2018-03-22T13:57:34.782Z,10
2018-03-22T13:58:35.023Z,10
2018-03-22T13:59:34.463Z,10
2018-03-22T14:00:34.913Z,10
2018-03-22T14:01:34.501Z,10
2018-03-22T14:02:35.077Z,10
2018-03-22T14:03:35.074Z,10
2018-03-22T14:04:35.087Z,10
2018-03-22T14:05:34.533Z,10
2018-03-22T14:06:35.108Z,5
2018-03-22T14:07:35.174Z,10
2018-03-22T14:08:35.134Z,10
2018-03-22T14:09:34.868Z,10
2018-03-22T14:10:34.595Z,10
2018-03-22T14:11:34.888Z,10
2018-03-22T14:12:34.900Z,10
2018-03-22T14:13:35.185Z,10
2018-03-22T14:14:34.979Z,10
2018-03-22T14:15:34.367Z,10
2018-03-22T14:16:34.941Z,10
2018-03-22T14:17:34.947Z,10
2018-03-22T14:18:34.967Z,10
2018-03-22T14:19:34.690Z,10
2018-03-22T14:20:34.984Z,10
2018-03-22T14:21:34.998Z,10
2018-03-22T14:22:34.780Z,10
2018-03-22T14:23:34.819Z,10
2018-03-22T14:24:34.469Z,10
2018-03-22T14:25:34.757Z,5
2018-03-22T14:26:35.057Z,5
2018-03-22T14:27:34.784Z,5
2018-03-22T14:28:35.081Z,5
2018-03-22T14:29:35.099Z,5
2018-03-22T14:30:34.533Z,5